createdAt,value
2022-12-09T00:01:24.147Z,97768.41
2022-12-09T00:03:51.223Z,97767.66
2022-12-09T00:06:21.300Z,97759.84
2022-12-09T00:08:49.086Z,97749.66
2022-12-09T00:11:16.474Z,97749.34
2022-12-09T00:13:43.612Z,97750.69
2022-12-09T00:16:13.405Z,97749.06
2022-12-09T00:18:41.237Z,97752.84
2022-12-09T00:21:22.616Z,97746.16
2022-12-09T00:23:50.762Z,97750.19
2022-12-09T00:26:18.451Z,97748.31
2022-12-09T00:28:46.068Z,97743.50
2022-12-09T00:31:15.897Z,97740.06
2022-12-09T00:33:43.440Z,97736.56
2022-12-09T00:36:14.472Z,97740.31
2022-12-09T00:38:42.022Z,97739.22
2022-12-09T00:41:09.400Z,97735.47
2022-12-09T00:43:36.849Z,97737.38
2022-12-09T00:46:04.176Z,97741.63
2022-12-09T00:48:31.181Z,97741.31
2022-12-09T00:50:58.013Z,97744.25
2022-12-09T00:53:25.027Z,97744.81
2022-12-09T00:55:52.560Z,97741.84
2022-12-09T00:58:19.551Z,97734.34
2022-12-09T01:00:46.299Z,97735.94
2022-12-09T01:03:15.173Z,97739.97
2022-12-09T01:05:43.031Z,97747.94
2022-12-09T01:08:11.070Z,97739.91
2022-12-09T01:10:39.809Z,97735.13
2022-12-09T01:13:06.766Z,97740.44
2022-12-09T01:15:34.175Z,97747.06
2022-12-09T01:18:01.218Z,97746.28
2022-12-09T01:20:28.017Z,97739.88
2022-12-09T01:22:54.951Z,97743.34
2022-12-09T01:25:21.992Z,97740.41
2022-12-09T01:27:48.777Z,97743.84
2022-12-09T01:30:16.652Z,97741.16
2022-12-09T01:32:43.618Z,97742.75
2022-12-09T01:35:10.807Z,97743.84
2022-12-09T01:37:38.626Z,97743.06
2022-12-09T01:40:08.732Z,97742.50
2022-12-09T01:42:36.292Z,97751.03
2022-12-09T01:45:30.765Z,97739.78
2022-12-09T01:48:08.717Z,97733.09
2022-12-09T01:50:37.835Z,97718.66
2022-12-09T01:53:05.998Z,97725.09
2022-12-09T01:55:32.991Z,97713.38
2022-12-09T01:58:00.133Z,97723.84
2022-12-09T02:00:27.358Z,97710.19
2022-12-09T02:02:56.442Z,97713.13
2022-12-09T02:05:24.668Z,97701.41
2022-12-09T02:07:52.171Z,97692.06
2022-12-09T02:10:19.895Z,97684.09
2022-12-09T02:12:59.918Z,97684.91
2022-12-09T02:15:52.552Z,97683.28
2022-12-09T02:18:42.821Z,97672.06
2022-12-09T02:21:15.575Z,97688.59
2022-12-09T02:24:00.998Z,97684.31
2022-12-09T02:26:48.439Z,97681.03
2022-12-09T02:29:44.588Z,97678.84
2022-12-09T02:32:36.326Z,97682.81
2022-12-09T02:35:11.939Z,97678.47
2022-12-09T02:37:45.532Z,97673.97
2022-12-09T02:40:17.861Z,97680.38
2022-12-09T02:42:48.683Z,97671.84
2022-12-09T02:45:17.054Z,97666.28
2022-12-09T02:47:49.082Z,97648.13
2022-12-09T02:50:21.760Z,97655.84
2022-12-09T02:52:51.194Z,97642.28
2022-12-09T02:55:20.514Z,97646.53
2022-12-09T02:57:51.198Z,97651.03
2022-12-09T03:00:18.362Z,97650.22
2022-12-09T03:02:49.298Z,97650.13
2022-12-09T03:05:27.245Z,97641.63
2022-12-09T03:08:12.608Z,97634.69
2022-12-09T03:10:51.538Z,97632.81
2022-12-09T03:13:33.365Z,97636.53
2022-12-09T03:16:10.196Z,97626.38
2022-12-09T03:18:43.506Z,97630.06
2022-12-09T03:21:14.599Z,97631.44
2022-12-09T03:23:45.588Z,97621.31
2022-12-09T03:26:15.595Z,97624.00
2022-12-09T03:28:49.214Z,97619.47
2022-12-09T03:31:21.050Z,97619.13
2022-12-09T03:33:54.088Z,97613.28
2022-12-09T03:36:23.764Z,97613.00
2022-12-09T03:38:52.584Z,97617.31
2022-12-09T03:41:31.725Z,97611.22
2022-12-09T03:44:22.017Z,97620.00
2022-12-09T03:46:49.201Z,97612.81
2022-12-09T03:49:16.612Z,97616.25
2022-12-09T03:51:49.766Z,97613.03
2022-12-09T03:54:22.255Z,97616.50
2022-12-09T03:56:53.374Z,97624.50
2022-12-09T03:59:22.445Z,97617.50
2022-12-09T04:01:49.568Z,97618.25
2022-12-09T04:04:17.015Z,97615.88
2022-12-09T04:06:44.838Z,97608.94
2022-12-09T04:09:12.166Z,97615.28
2022-12-09T04:11:39.247Z,97611.31
2022-12-09T04:14:10.438Z,97607.59
2022-12-09T04:16:40.975Z,97608.91
2022-12-09T04:19:07.799Z,97602.56
2022-12-09T04:21:34.836Z,97605.44
2022-12-09T04:24:01.673Z,97597.16
2022-12-09T04:26:28.393Z,97597.47
2022-12-09T04:28:55.530Z,97595.25
2022-12-09T04:31:22.356Z,97591.06
2022-12-09T04:33:49.499Z,97585.53
2022-12-09T04:36:18.728Z,97570.06
2022-12-09T04:38:46.496Z,97562.13
2022-12-09T04:41:14.532Z,97571.75
2022-12-09T04:43:41.631Z,97564.81
2022-12-09T04:46:13.633Z,97559.69
2022-12-09T04:48:40.717Z,97553.59
2022-12-09T04:51:12.976Z,97553.28
2022-12-09T04:53:40.806Z,97548.50
2022-12-09T04:56:12.845Z,97552.78
2022-12-09T04:58:40.023Z,97551.19
2022-12-09T05:01:08.934Z,97549.56
2022-12-09T05:03:36.883Z,97545.81
2022-12-09T05:06:05.843Z,97541.53
2022-12-09T05:08:33.683Z,97545.28
2022-12-09T05:11:01.111Z,97544.22
2022-12-09T05:13:28.611Z,97543.16
2022-12-09T05:16:12.125Z,97538.84
2022-12-09T05:18:43.070Z,97534.78
2022-12-09T05:21:14.971Z,97536.34
2022-12-09T05:23:42.423Z,97539.03
2022-12-09T05:26:13.138Z,97532.91
2022-12-09T05:28:40.470Z,97528.09
2022-12-09T05:31:11.497Z,97530.16
2022-12-09T05:33:38.714Z,97531.78
2022-12-09T05:36:10.065Z,97526.97
2022-12-09T05:38:37.565Z,97526.41
2022-12-09T05:41:04.687Z,97529.59
2022-12-09T05:43:34.678Z,97529.31
2022-12-09T05:46:03.624Z,97517.69
2022-12-09T05:48:31.054Z,97523.34
2022-12-09T05:51:03.617Z,97522.25
2022-12-09T05:53:32.092Z,97523.59
2022-12-09T05:55:59.414Z,97517.28
2022-12-09T05:58:27.016Z,97517.53
2022-12-09T06:00:56.636Z,97515.94
2022-12-09T06:03:24.622Z,97517.28
2022-12-09T06:05:52.325Z,97507.72
2022-12-09T06:08:19.761Z,97503.44
2022-12-09T06:10:47.244Z,97505.88
2022-12-09T06:13:14.714Z,97506.66
2022-12-09T06:15:41.831Z,97502.38
2022-12-09T06:18:09.239Z,97504.25
2022-12-09T06:20:41.136Z,97503.97
2022-12-09T06:23:08.061Z,97503.69
2022-12-09T06:25:36.954Z,97503.69
2022-12-09T06:28:04.877Z,97502.59
2022-12-09T06:30:32.501Z,97497.28
2022-12-09T06:33:00.551Z,97503.91
2022-12-09T06:35:27.780Z,97500.72
2022-12-09T06:37:54.749Z,97497.84
2022-12-09T06:40:22.752Z,97497.03
2022-12-09T06:42:51.256Z,97497.81
2022-12-09T06:45:21.780Z,97507.13
2022-12-09T06:47:49.324Z,97504.78
2022-12-09T06:50:22.092Z,97503.19
2022-12-09T06:52:49.168Z,97505.81
2022-12-09T06:55:16.179Z,97509.25
2022-12-09T06:57:43.213Z,97507.44
2022-12-09T07:00:12.849Z,97509.84
2022-12-09T07:02:49.406Z,97498.38
2022-12-09T07:05:17.836Z,97501.06
2022-12-09T07:07:49.888Z,97500.56
2022-12-09T07:10:16.947Z,97501.16
2022-12-09T07:12:44.153Z,97500.09
2022-12-09T07:15:12.200Z,97500.06
2022-12-09T07:17:39.361Z,97502.34
2022-12-09T07:20:14.141Z,97497.28
2022-12-09T07:22:41.380Z,97493.00
2022-12-09T07:25:09.064Z,97497.31
2022-12-09T07:27:39.789Z,97496.25
2022-12-09T07:30:07.581Z,97493.31
2022-12-09T07:32:34.703Z,97490.13
2022-12-09T07:35:01.663Z,97488.28
2022-12-09T07:37:30.365Z,97489.59
2022-12-09T07:40:00.676Z,97497.31
2022-12-09T07:42:29.584Z,97497.03
2022-12-09T07:44:56.537Z,97489.84
2022-12-09T07:47:24.119Z,97495.69
2022-12-09T07:49:55.230Z,97498.94
2022-12-09T07:52:23.543Z,97491.75
2022-12-09T07:54:50.523Z,97494.19
2022-12-09T07:57:18.397Z,97504.03
2022-12-09T07:59:45.294Z,97503.00
2022-12-09T08:02:13.016Z,97502.16
2022-12-09T08:04:40.343Z,97492.88
2022-12-09T08:07:07.468Z,97498.47
2022-12-09T08:09:34.867Z,97496.94
2022-12-09T08:12:02.051Z,97494.28
2022-12-09T08:14:29.046Z,97490.34
2022-12-09T08:16:56.268Z,97498.06
2022-12-09T08:19:23.684Z,97490.63
2022-12-09T08:21:54.590Z,97490.38
2022-12-09T08:24:21.984Z,97489.56
2022-12-09T08:26:50.943Z,97483.72
2022-12-09T08:29:18.431Z,97488.00
2022-12-09T08:31:45.696Z,97483.72
2022-12-09T08:34:13.539Z,97485.63
2022-12-09T08:36:41.725Z,97486.72
2022-12-09T08:39:09.332Z,97476.06
2022-12-09T08:41:38.181Z,97475.50
2022-12-09T08:44:12.152Z,97465.91
2022-12-09T08:46:41.803Z,97466.50
2022-12-09T08:49:10.075Z,97460.63
2022-12-09T08:51:37.610Z,97457.97
2022-12-09T08:54:06.047Z,97460.91
2022-12-09T08:56:33.540Z,97456.38
2022-12-09T08:59:00.712Z,97462.00
2022-12-09T09:01:32.772Z,97459.03
2022-12-09T09:04:07.865Z,97462.53
2022-12-09T09:06:37.620Z,97454.53
2022-12-09T09:09:07.190Z,97448.66
2022-12-09T09:11:35.290Z,97448.91
2022-12-09T09:14:07.703Z,97446.53
2022-12-09T09:16:35.727Z,97441.97
2022-12-09T09:19:05.752Z,97434.25
2022-12-09T09:21:33.787Z,97434.25
2022-12-09T09:24:01.518Z,97438.78
2022-12-09T09:26:28.866Z,97437.72
2022-12-09T09:28:56.447Z,97436.41
2022-12-09T09:31:25.073Z,97428.66
2022-12-09T09:33:52.237Z,97433.97
2022-12-09T09:36:23.660Z,97441.44
2022-12-09T09:38:53.140Z,97425.19
2022-12-09T09:41:24.766Z,97430.53
2022-12-09T09:43:53.175Z,97435.59
2022-12-09T09:46:44.541Z,97425.66
2022-12-09T09:49:18.902Z,97429.66
2022-12-09T09:51:46.834Z,97426.44
2022-12-09T09:54:15.978Z,97424.84
2022-12-09T09:56:53.664Z,97419.25
2022-12-09T09:59:49.347Z,97422.19
2022-12-09T10:02:21.876Z,97408.81
2022-12-09T10:05:03.705Z,97415.47
2022-12-09T10:07:42.953Z,97417.59
2022-12-09T10:10:35.910Z,97417.84
2022-12-09T10:13:25.344Z,97409.56
2022-12-09T10:16:09.369Z,97411.16
2022-12-09T10:19:09.651Z,97407.94
2022-12-09T10:21:41.079Z,97419.13
2022-12-09T10:24:21.149Z,97400.44
2022-12-09T10:27:14.639Z,97396.91
2022-12-09T10:29:56.908Z,97408.78
2022-12-09T10:32:27.697Z,97400.75
2022-12-09T10:34:55.162Z,97400.25
2022-12-09T10:37:30.844Z,97391.66
2022-12-09T10:40:21.350Z,97391.66
2022-12-09T10:43:16.178Z,97394.50
2022-12-09T10:48:53.050Z,97373.31
2022-12-09T10:51:24.055Z,97374.69
2022-12-09T10:54:10.505Z,97372.22
2022-12-09T10:56:40.149Z,97365.53
2022-12-09T10:59:15.952Z,97373.47
2022-12-09T11:01:54.962Z,97367.22
2022-12-09T11:04:29.691Z,97365.88
2022-12-09T11:07:12.137Z,97357.03
2022-12-09T11:09:49.127Z,97351.59
2022-12-09T11:12:33.473Z,97351.59
2022-12-09T11:15:25.565Z,97358.38
2022-12-09T11:18:08.728Z,97360.81
2022-12-09T11:20:36.500Z,97353.91
2022-12-09T11:23:15.211Z,97356.47
2022-12-09T11:25:56.498Z,97357.81
2022-12-09T11:28:40.297Z,97356.25
2022-12-09T11:31:33.486Z,97350.13
2022-12-09T11:34:04.713Z,97353.84
2022-12-09T11:36:43.684Z,97345.59
2022-12-09T11:39:13.974Z,97342.41
2022-12-09T11:42:08.127Z,97346.84
2022-12-09T11:44:38.506Z,97343.06
2022-12-09T11:47:11.854Z,97338.00
2022-12-09T11:49:50.642Z,97336.09
2022-12-09T11:52:17.425Z,97329.97
2022-12-09T11:54:56.869Z,97325.41
2022-12-09T11:57:41.496Z,97322.69
2022-12-09T12:00:21.308Z,97325.50
2022-12-09T12:03:03.685Z,97321.16
2022-12-09T12:05:42.049Z,97318.72
2022-12-09T12:08:25.323Z,97314.47
2022-12-09T12:11:01.118Z,97310.97
2022-12-09T12:13:44.538Z,97310.53
2022-12-09T12:16:19.099Z,97311.88
2022-12-09T12:19:00.081Z,97312.19
2022-12-09T12:21:56.423Z,97311.88
2022-12-09T12:24:34.768Z,97321.06
2022-12-09T12:27:29.724Z,97336.84
2022-12-09T12:30:04.220Z,97334.44
2022-12-09T12:36:18.139Z,97320.59
2022-12-09T12:39:21.038Z,97311.72
2022-12-09T12:42:01.319Z,97309.00
2022-12-09T12:45:08.235Z,97315.44
2022-12-09T12:48:00.140Z,97321.06
2022-12-09T12:50:35.885Z,97316.06
2022-12-09T12:53:45.154Z,97321.97
2022-12-09T12:56:16.950Z,97324.94
2022-12-09T12:59:11.535Z,97316.31
2022-12-09T13:01:52.490Z,97319.75
2022-12-09T13:04:37.573Z,97323.56
2022-12-09T13:07:16.180Z,97327.34
2022-12-09T13:09:50.155Z,97334.84
2022-12-09T13:12:47.684Z,97331.34
2022-12-09T13:15:16.795Z,97329.19
2022-12-09T13:17:45.685Z,97330.84
2022-12-09T13:20:24.565Z,97329.53
2022-12-09T13:23:00.769Z,97326.28
2022-12-09T13:25:53.524Z,97323.59
2022-12-09T13:28:30.544Z,97329.78
2022-12-09T13:30:59.271Z,97326.28
2022-12-09T13:33:39.687Z,97323.13
2022-12-09T13:36:18.255Z,97327.19
2022-12-09T13:38:45.382Z,97326.91
2022-12-09T13:41:27.444Z,97333.13
2022-12-09T13:44:05.615Z,97329.97
2022-12-09T13:46:33.839Z,97332.34
2022-12-09T13:49:10.924Z,97329.41
2022-12-09T13:51:46.198Z,97333.44
2022-12-09T13:54:16.902Z,97332.41
2022-12-09T13:56:44.300Z,97334.19
2022-12-09T13:59:48.988Z,97335.50
2022-12-09T14:02:15.744Z,97331.72
2022-12-09T14:04:59.079Z,97338.22
2022-12-09T14:07:31.729Z,97332.91
2022-12-09T14:10:00.223Z,97332.41
2022-12-09T14:12:26.971Z,97332.91
2022-12-09T14:15:19.393Z,97337.78
2022-12-09T14:17:46.326Z,97342.31
2022-12-09T14:20:25.106Z,97343.63
2022-12-09T14:23:10.637Z,97333.72
2022-12-09T14:25:37.326Z,97336.41
2022-12-09T14:28:10.295Z,97329.16
2022-12-09T14:31:06.685Z,97337.75
2022-12-09T14:33:43.929Z,97342.31
2022-12-09T14:36:16.876Z,97349.81
2022-12-09T14:39:29.887Z,97348.44
2022-12-09T14:42:11.275Z,97361.00
2022-12-09T14:44:53.932Z,97359.88
2022-12-09T14:47:31.009Z,97364.19
2022-12-09T14:50:07.341Z,97365.78
2022-12-09T14:52:34.362Z,97358.28
2022-12-09T14:55:05.955Z,97366.00
2022-12-09T14:57:38.766Z,97371.41
2022-12-09T15:00:07.618Z,97381.56
2022-12-09T15:02:34.678Z,97378.66
2022-12-09T15:05:03.192Z,97381.59
2022-12-09T15:07:32.177Z,97389.16
2022-12-09T15:10:36.325Z,97390.53
2022-12-09T15:13:03.664Z,97392.38
2022-12-09T15:15:32.376Z,97392.69
2022-12-09T15:18:02.889Z,97401.28
2022-12-09T15:20:37.050Z,97395.09
2022-12-09T15:23:07.204Z,97393.50
2022-12-09T15:25:46.977Z,97397.25
2022-12-09T15:28:24.554Z,97390.59
2022-12-09T15:30:58.359Z,97384.44
2022-12-09T15:33:25.965Z,97392.47
2022-12-09T15:35:58.385Z,97387.13
2022-12-09T15:38:28.513Z,97393.03
2022-12-09T15:41:16.459Z,97397.03
2022-12-09T15:43:44.608Z,97395.09
2022-12-09T15:46:12.877Z,97397.75
2022-12-09T15:48:49.982Z,97391.13
2022-12-09T15:51:21.631Z,97397.00
2022-12-09T15:53:55.262Z,97400.47
2022-12-09T15:56:47.543Z,97400.41
2022-12-09T15:59:20.258Z,97395.88
2022-12-09T16:01:51.278Z,97402.31
2022-12-09T16:04:28.552Z,97401.84
2022-12-09T16:07:04.968Z,97407.97
2022-12-09T16:09:31.679Z,97398.63
2022-12-09T16:11:58.421Z,97398.91
2022-12-09T16:14:26.071Z,97397.03
2022-12-09T16:17:01.989Z,97404.47
2022-12-09T16:19:36.142Z,97404.69
2022-12-09T16:22:15.310Z,97406.38
2022-12-09T16:25:14.101Z,97411.72
2022-12-09T16:27:44.741Z,97405.03
2022-12-09T16:30:17.149Z,97406.06
2022-12-09T16:32:52.245Z,97402.53
2022-12-09T16:35:25.190Z,97404.16
2022-12-09T16:37:58.635Z,97407.69
2022-12-09T16:40:26.744Z,97409.31
2022-12-09T16:43:13.623Z,97402.63
2022-12-09T16:45:41.148Z,97408.53
2022-12-09T16:48:09.203Z,97408.00
2022-12-09T16:50:41.705Z,97405.59
2022-12-09T16:53:37.517Z,97415.16
2022-12-09T16:56:04.555Z,97414.34
2022-12-09T16:58:34.512Z,97414.59
2022-12-09T17:01:04.167Z,97419.72
2022-12-09T17:03:52.708Z,97415.94
2022-12-09T17:06:20.839Z,97421.59
2022-12-09T17:08:48.044Z,97422.91
2022-12-09T17:11:16.848Z,97420.53
2022-12-09T17:13:44.180Z,97426.94
2022-12-09T17:16:11.082Z,97428.25
2022-12-09T17:18:40.096Z,97429.34
2022-12-09T17:21:09.795Z,97436.28
2022-12-09T17:23:40.038Z,97429.84
2022-12-09T17:26:12.294Z,97430.66
2022-12-09T17:28:40.646Z,97441.03
2022-12-09T17:31:17.409Z,97434.59
2022-12-09T17:33:44.935Z,97439.16
2022-12-09T17:36:14.335Z,97431.69
2022-12-09T17:38:42.259Z,97432.22
2022-12-09T17:41:18.320Z,97433.00
2022-12-09T17:43:45.854Z,97439.22
2022-12-09T17:46:13.729Z,97435.19
2022-12-09T17:48:41.862Z,97442.47
2022-12-09T17:51:19.381Z,97441.19
2022-12-09T17:53:47.253Z,97438.75
2022-12-09T17:56:16.857Z,97439.88
2022-12-09T17:58:44.049Z,97442.56
2022-12-09T18:01:15.400Z,97443.03
2022-12-09T18:04:00.463Z,97446.22
2022-12-09T18:06:31.622Z,97446.97
2022-12-09T18:08:58.364Z,97451.03
2022-12-09T18:11:25.162Z,97445.41
2022-12-09T18:13:52.543Z,97456.13
2022-12-09T18:16:19.934Z,97455.56
2022-12-09T18:18:47.382Z,97452.66
2022-12-09T18:21:16.199Z,97466.59
2022-12-09T18:23:43.792Z,97465.75
2022-12-09T18:26:13.114Z,97464.41
2022-12-09T18:28:40.416Z,97462.25
2022-12-09T18:31:08.710Z,97472.66
2022-12-09T18:33:37.411Z,97465.44
2022-12-09T18:36:10.726Z,97469.47
2022-12-09T18:38:38.338Z,97470.84
2022-12-09T18:41:13.322Z,97472.69
2022-12-09T18:43:42.345Z,97477.50
2022-12-09T18:46:23.852Z,97469.72
2022-12-09T18:49:02.998Z,97471.31
2022-12-09T18:51:30.185Z,97465.69
2022-12-09T18:53:58.753Z,97469.16
2022-12-09T18:56:26.167Z,97465.94
2022-12-09T18:59:09.732Z,97463.25
2022-12-09T19:01:40.665Z,97462.44
2022-12-09T19:04:12.628Z,97472.06
2022-12-09T19:06:41.110Z,97464.59
2022-12-09T19:09:14.665Z,97468.66
2022-12-09T19:11:43.686Z,97466.75
2022-12-09T19:14:11.345Z,97474.78
2022-12-09T19:16:38.875Z,97468.91
2022-12-09T19:19:09.950Z,97472.91
2022-12-09T19:21:38.100Z,97464.91
2022-12-09T19:24:05.383Z,97468.34
2022-12-09T19:26:33.684Z,97465.97
2022-12-09T19:29:07.153Z,97469.72
2022-12-09T19:31:54.775Z,97479.09
2022-12-09T19:34:24.176Z,97473.75
2022-12-09T19:36:53.087Z,97480.44
2022-12-09T19:39:23.480Z,97477.16
2022-12-09T19:41:51.687Z,97480.66
2022-12-09T19:44:37.226Z,97486.84
2022-12-09T19:47:07.496Z,97489.75
2022-12-09T19:49:34.599Z,97494.84
2022-12-09T19:52:01.640Z,97504.00
2022-12-09T19:54:29.597Z,97499.72
2022-12-09T19:56:56.896Z,97508.53
2022-12-09T19:59:23.853Z,97505.03
2022-12-09T20:01:51.451Z,97505.25
2022-12-09T20:07:08.685Z,97511.72
2022-12-09T20:09:37.211Z,97509.91
2022-12-09T20:12:04.805Z,97514.97
2022-12-09T20:14:31.829Z,97505.88
2022-12-09T20:16:58.772Z,97505.31
2022-12-09T20:19:25.499Z,97513.09
2022-12-09T20:21:52.384Z,97516.03
2022-12-09T20:24:19.249Z,97511.75
2022-12-09T20:26:46.167Z,97512.84
2022-12-09T20:29:13.018Z,97515.47
2022-12-09T20:31:41.777Z,97516.56
2022-12-09T20:34:14.321Z,97508.28
2022-12-09T20:36:43.949Z,97511.50
2022-12-09T20:39:15.497Z,97520.28
2022-12-09T20:41:43.029Z,97518.16
2022-12-09T20:44:12.145Z,97526.69
2022-12-09T20:46:41.380Z,97530.41
2022-12-09T20:49:09.782Z,97531.28
2022-12-09T20:51:39.225Z,97526.19
2022-12-09T20:54:08.029Z,97523.75
2022-12-09T20:56:35.717Z,97530.41
2022-12-09T20:59:04.693Z,97532.56
2022-12-09T21:01:34.605Z,97526.19
2022-12-09T21:04:03.156Z,97526.19
2022-12-09T21:06:35.675Z,97530.97
2022-12-09T21:09:06.753Z,97528.81
2022-12-09T21:11:34.214Z,97521.63
2022-12-09T21:14:04.748Z,97522.94
2022-12-09T21:16:35.432Z,97529.94
2022-12-09T21:19:06.191Z,97522.19
2022-12-09T21:21:35.374Z,97518.97
2022-12-09T21:24:02.998Z,97520.03
2022-12-09T21:26:30.729Z,97524.06
2022-12-09T21:28:59.682Z,97524.88
2022-12-09T21:31:29.947Z,97530.47
2022-12-09T21:33:58.696Z,97524.88
2022-12-09T21:36:28.736Z,97524.03
2022-12-09T21:38:56.328Z,97522.69
2022-12-09T21:41:25.747Z,97533.63
2022-12-09T21:43:54.995Z,97527.72
2022-12-09T21:46:25.165Z,97533.06
2022-12-09T21:48:59.995Z,97534.97
2022-12-09T21:51:30.909Z,97534.16
2022-12-09T21:53:57.721Z,97541.09
2022-12-09T21:56:26.933Z,97535.78
2022-12-09T21:58:55.978Z,97542.22
2022-12-09T22:01:29.487Z,97544.31
2022-12-09T22:03:58.051Z,97540.59
2022-12-09T22:06:25.002Z,97545.44
2022-12-09T22:08:51.983Z,97550.78
2022-12-09T22:11:25.711Z,97554.00
2022-12-09T22:13:53.015Z,97552.38
2022-12-09T22:16:23.332Z,97558.00
2022-12-09T22:18:52.539Z,97559.63
2022-12-09T22:21:25.263Z,97566.31
2022-12-09T22:23:58.587Z,97565.22
2022-12-09T22:26:26.222Z,97570.03
2022-12-09T22:28:53.895Z,97573.28
2022-12-09T22:31:24.080Z,97563.34
2022-12-09T22:33:52.758Z,97571.63
2022-12-09T22:36:20.350Z,97563.09
2022-12-09T22:38:48.091Z,97564.72
2022-12-09T22:41:21.286Z,97575.16
2022-12-09T22:43:49.879Z,97566.31
2022-12-09T22:46:21.545Z,97577.84
2022-12-09T22:48:49.087Z,97576.50
2022-12-09T22:51:21.796Z,97574.88
2022-12-09T22:53:51.397Z,97571.38
2022-12-09T22:56:18.861Z,97571.09
2022-12-09T22:58:45.637Z,97568.19
2022-12-09T23:01:18.286Z,97558.81
2022-12-09T23:03:44.968Z,97560.69
2022-12-09T23:06:12.243Z,97563.38
2022-12-09T23:08:40.856Z,97557.50
2022-12-09T23:11:11.821Z,97553.50
2022-12-09T23:13:41.175Z,97549.47
2022-12-09T23:16:12.717Z,97559.88
2022-12-09T23:18:40.323Z,97556.69
2022-12-09T23:21:11.988Z,97569.00
2022-12-09T23:23:39.668Z,97559.38
2022-12-09T23:26:18.015Z,97560.47
2022-12-09T23:28:48.503Z,97558.59
2022-12-09T23:31:17.942Z,97564.75
2022-12-09T23:33:46.983Z,97564.47
2022-12-09T23:36:19.256Z,97562.59
2022-12-09T23:38:48.378Z,97562.88
2022-12-09T23:41:17.718Z,97557.78
2022-12-09T23:43:46.116Z,97555.94
2022-12-09T23:46:16.362Z,97565.56
2022-12-09T23:48:48.093Z,97562.06
2022-12-09T23:51:23.543Z,97558.56
2022-12-09T23:53:52.136Z,97556.69
2022-12-09T23:56:21.152Z,97555.63
2022-12-09T23:58:52.576Z,97556.44
